Time;durP1;ratioP1;P1;durP2;ratioP2;P2;SDS_P1;SDS_P2;PMS_P1;PMS_P2;Temp;Humidity;BMP_temperature;BMP_pressure;BME280_temperature;BME280_humidity;BME280_pressure;Samples;Min_cycle;Max_cycle;Signal;HPM_P1;HPM_P2
2022/03/05 00:01:16;;;;;;;;;;;-0.40;99.90;;;;;;5109359;27;19924;-86
2022/03/05 00:03:42;;;;;;;;;;;-0.40;99.90;;;;;;5096580;28;20288;-85
2022/03/05 00:06:07;;;;;;;;;;;-0.40;99.90;;;;;;5102416;27;19919;-86
2022/03/05 00:08:55;;;;;;;;;;;-0.50;99.90;;;;;;5129678;27;19928;-85
2022/03/05 00:11:21;;;;;;;;;;;-0.60;99.90;;;;;;5105212;28;19928;-85
2022/03/05 00:13:46;;;;;;;;;;;-0.60;99.90;;;;;;5078746;28;19920;-85
2022/03/05 00:16:12;;;;;;;;;;;-0.60;99.90;;;;;;5078143;28;19920;-86
2022/03/05 00:18:37;;;;;;;;;;;-0.70;99.90;;;;;;5070597;28;20265;-86
2022/03/05 00:21:03;;;;;;;;;;;-0.60;99.90;;;;;;5098893;28;19919;-86
2022/03/05 00:23:28;;;;;;;;;;;-0.50;99.90;;;;;;5082023;28;19927;-85
2022/03/05 00:25:54;;;;;;;;;;;-0.60;99.90;;;;;;5085880;27;20364;-85
2022/03/05 00:28:19;;;;;;;;;;;-0.60;99.90;;;;;;5145031;27;19928;-85
2022/03/05 00:31:03;;;;;;;;;;;-0.70;99.90;;;;;;5107333;28;19920;-85
2022/03/05 00:33:29;;;;;;;;;;;-0.70;99.90;;;;;;5067629;28;19926;-86
2022/03/05 00:35:55;;;;;;;;;;;-0.70;99.90;;;;;;5062156;28;19920;-86
2022/03/05 00:38:21;;;;;;;;;;;-0.70;99.90;;;;;;5061220;28;20304;-86
2022/03/05 00:40:46;;;;;;;;;;;-0.80;99.90;;;;;;5081466;28;20416;-85
2022/03/05 00:43:13;;;;;;;;;;;-0.70;99.90;;;;;;5081829;28;19959;-86
2022/03/05 00:45:38;;;;;;;;;;;-0.80;99.90;;;;;;5081738;28;19920;-86
2022/03/05 00:48:04;;;;;;;;;;;-0.70;99.90;;;;;;5081198;28;19969;-85
2022/03/05 00:50:30;;;;;;;;;;;-0.70;99.90;;;;;;5081629;28;20453;-85
2022/03/05 00:52:55;;;;;;;;;;;-0.70;99.90;;;;;;5081568;28;19920;-86
2022/03/05 00:55:21;;;;;;;;;;;-0.70;99.90;;;;;;5081640;28;19927;-86
2022/03/05 00:57:46;;;;;;;;;;;-0.80;99.90;;;;;;5081115;28;19973;-85
2022/03/05 01:00:12;;;;;;;;;;;-0.80;99.90;;;;;;5081404;28;20002;-86
2022/03/05 01:02:38;;;;;;;;;;;-0.80;99.90;;;;;;5081241;28;19927;-86
2022/03/05 01:05:04;;;;;;;;;;;-0.90;99.90;;;;;;5081799;28;20481;-85
2022/03/05 01:07:30;;;;;;;;;;;-0.90;99.90;;;;;;5098215;28;19981;-85
2022/03/05 01:09:55;;;;;;;;;;;-0.90;99.90;;;;;;5081369;28;19989;-85
2022/03/05 01:12:22;;;;;;;;;;;-1.00;99.90;;;;;;5097362;28;20292;-85
2022/03/05 01:14:48;;;;;;;;;;;-1.10;99.90;;;;;;5061220;28;19920;-85
2022/03/05 01:17:13;;;;;;;;;;;-1.10;99.90;;;;;;5060834;28;19920;-85
2022/03/05 01:19:39;;;;;;;;;;;-1.10;99.90;;;;;;5078028;28;19920;-85
2022/03/05 01:22:05;;;;;;;;;;;-1.00;99.90;;;;;;5061028;28;19920;-85
2022/03/05 01:24:30;;;;;;;;;;;-1.00;99.90;;;;;;5077850;28;19924;-85
2022/03/05 01:26:56;;;;;;;;;;;-1.00;99.90;;;;;;5077256;28;19920;-85
2022/03/05 01:29:22;;;;;;;;;;;-0.90;99.90;;;;;;5077741;28;19924;-85
2022/03/05 01:31:48;;;;;;;;;;;-0.90;99.90;;;;;;5060984;28;19927;-85
2022/03/05 01:34:14;;;;;;;;;;;-0.90;99.90;;;;;;5078738;28;19969;-85
2022/03/05 01:36:39;;;;;;;;;;;-0.90;99.90;;;;;;5097270;28;19928;-85
2022/03/05 01:39:05;;;;;;;;;;;-0.90;99.90;;;;;;5081153;28;19920;-85
2022/03/05 01:41:31;;;;;;;;;;;-0.70;99.90;;;;;;5080626;28;19920;-85
2022/03/05 01:43:56;;;;;;;;;;;-0.90;99.90;;;;;;5081081;28;19920;-85
2022/03/05 01:46:35;;;;;;;;;;;-0.90;99.90;;;;;;5097393;28;20014;-85
2022/03/05 01:49:03;;;;;;;;;;;-0.90;99.90;;;;;;5097448;28;19972;-86
2022/03/05 01:51:28;;;;;;;;;;;-1.00;99.90;;;;;;5080743;28;19920;-86
2022/03/05 01:53:54;;;;;;;;;;;-0.70;99.90;;;;;;5080634;28;19928;-85
2022/03/05 01:56:20;;;;;;;;;;;-1.00;99.90;;;;;;5096819;28;19926;-85
2022/03/05 01:58:46;;;;;;;;;;;-1.00;99.90;;;;;;5060412;28;19927;-86
2022/03/05 02:01:12;;;;;;;;;;;-1.00;99.90;;;;;;5094218;28;19920;-85
2022/03/05 02:03:37;;;;;;;;;;;-1.00;99.90;;;;;;5093750;28;19970;-85
2022/03/05 02:06:03;;;;;;;;;;;-1.10;99.90;;;;;;5074306;28;19919;-87
2022/03/05 02:08:29;;;;;;;;;;;-1.00;99.90;;;;;;5080369;28;19947;-85
2022/03/05 02:10:54;;;;;;;;;;;-1.00;99.90;;;;;;5079815;28;19955;-85
2022/03/05 02:13:20;;;;;;;;;;;-1.00;99.90;;;;;;5079954;28;19927;-86
2022/03/05 02:15:45;;;;;;;;;;;-1.00;99.90;;;;;;5080230;28;20493;-85
2022/03/05 02:18:11;;;;;;;;;;;-1.00;99.90;;;;;;5096434;28;19919;-85
2022/03/05 02:20:38;;;;;;;;;;;-1.00;99.90;;;;;;5080024;28;20395;-85
2022/03/05 02:23:04;;;;;;;;;;;-1.00;99.90;;;;;;5079779;28;20432;-85
2022/03/05 02:25:29;;;;;;;;;;;-1.00;99.90;;;;;;5079446;28;20006;-86
2022/03/05 02:27:55;;;;;;;;;;;-1.00;99.90;;;;;;5079272;28;20492;-85
2022/03/05 02:30:21;;;;;;;;;;;-1.00;99.90;;;;;;5079622;28;19951;-85
2022/03/05 02:32:46;;;;;;;;;;;-0.80;99.90;;;;;;5096657;28;20307;-86
2022/03/05 02:35:12;;;;;;;;;;;-0.90;99.90;;;;;;5079597;28;19924;-85
2022/03/05 02:37:37;;;;;;;;;;;-1.00;99.90;;;;;;5096027;28;19992;-85
2022/03/05 02:40:03;;;;;;;;;;;-1.10;99.90;;;;;;5079625;28;20407;-85
2022/03/05 02:42:29;;;;;;;;;;;-1.20;99.90;;;;;;5079393;28;19920;-85
2022/03/05 02:44:54;;;;;;;;;;;-1.20;99.90;;;;;;5096271;28;19963;-85
2022/03/05 02:47:19;;;;;;;;;;;-1.20;99.90;;;;;;5078917;28;19923;-85
2022/03/05 02:49:45;;;;;;;;;;;-1.20;99.90;;;;;;5079143;28;20031;-85
2022/03/05 02:52:10;;;;;;;;;;;-1.10;99.90;;;;;;5079336;28;19930;-85
2022/03/05 02:54:36;;;;;;;;;;;-1.20;99.90;;;;;;5079297;28;20006;-85
2022/03/05 02:57:02;;;;;;;;;;;-1.20;99.90;;;;;;5079021;28;19920;-85
2022/03/05 02:59:27;;;;;;;;;;;-1.30;99.90;;;;;;5079622;28;20002;-85
2022/03/05 03:01:53;;;;;;;;;;;-1.20;99.90;;;;;;5095962;28;19926;-85
2022/03/05 03:04:18;;;;;;;;;;;-1.20;99.90;;;;;;5079472;28;19996;-84
2022/03/05 03:06:44;;;;;;;;;;;-1.30;99.90;;;;;;5079080;28;20069;-84
2022/03/05 03:09:09;;;;;;;;;;;-1.30;99.90;;;;;;5079233;28;20292;-85
2022/03/05 03:11:35;;;;;;;;;;;-1.30;99.90;;;;;;5079229;28;20372;-85
2022/03/05 03:14:00;;;;;;;;;;;-1.40;99.90;;;;;;5078988;28;19924;-85
2022/03/05 03:16:26;;;;;;;;;;;-1.40;99.90;;;;;;5078552;28;20605;-84
2022/03/05 03:18:51;;;;;;;;;;;-0.70;99.90;;;;;;5079075;28;20003;-85
2022/03/05 03:21:17;;;;;;;;;;;-1.50;99.90;;;;;;5095941;28;19927;-85
2022/03/05 03:23:43;;;;;;;;;;;-1.60;99.90;;;;;;5079301;28;20395;-85
2022/03/05 03:26:08;;;;;;;;;;;-1.60;99.90;;;;;;5095778;28;19981;-85
2022/03/05 03:28:34;;;;;;;;;;;-1.60;99.90;;;;;;5078985;28;19927;-85
2022/03/05 03:30:59;;;;;;;;;;;-1.60;99.90;;;;;;5095855;28;20340;-85
2022/03/05 03:33:25;;;;;;;;;;;-1.70;99.90;;;;;;5078843;28;20368;-85
2022/03/05 03:35:50;;;;;;;;;;;-1.80;99.90;;;;;;5084667;28;19928;-85
2022/03/05 03:38:16;;;;;;;;;;;-1.70;99.90;;;;;;5085235;28;19920;-85
2022/03/05 03:40:41;;;;;;;;;;;-1.80;99.90;;;;;;5085429;28;20380;-85
2022/03/05 03:43:07;;;;;;;;;;;-1.10;99.90;;;;;;5085872;28;20372;-85
2022/03/05 03:45:32;;;;;;;;;;;-1.80;99.90;;;;;;5102408;28;19967;-85
2022/03/05 03:47:58;;;;;;;;;;;-1.80;99.90;;;;;;5085447;28;19920;-85
2022/03/05 03:50:23;;;;;;;;;;;-1.80;99.90;;;;;;5085258;28;19966;-85
2022/03/05 03:52:49;;;;;;;;;;;-1.80;99.90;;;;;;5085654;28;20372;-85
2022/03/05 03:55:16;;;;;;;;;;;-1.50;99.90;;;;;;5085363;28;19926;-85
2022/03/05 03:57:42;;;;;;;;;;;-1.90;99.90;;;;;;5101867;28;19920;-85
2022/03/05 04:00:09;;;;;;;;;;;-1.90;99.90;;;;;;5085771;28;19927;-84
2022/03/05 04:02:35;;;;;;;;;;;-2.00;99.90;;;;;;5085346;28;19927;-85
2022/03/05 04:05:00;;;;;;;;;;;-1.80;99.90;;;;;;5085327;28;19923;-84
2022/03/05 04:10:10;;;;;;;;;;;-2.00;99.90;;;;;;5102348;28;19919;-85
2022/03/05 04:12:36;;;;;;;;;;;-2.00;99.90;;;;;;5085083;28;19923;-84
2022/03/05 04:15:02;;;;;;;;;;;-1.90;99.90;;;;;;5102094;28;20332;-84
2022/03/05 04:17:28;;;;;;;;;;;-2.00;99.90;;;;;;5101616;28;19978;-85
2022/03/05 04:19:53;;;;;;;;;;;-1.90;99.90;;;;;;5102104;28;19920;-85
2022/03/05 04:22:42;;;;;;;;;;;-1.90;99.90;;;;;;5085023;28;19919;-85
2022/03/05 04:25:08;;;;;;;;;;;-1.90;99.90;;;;;;5085158;28;19920;-85
2022/03/05 04:27:37;;;;;;;;;;;-1.90;99.90;;;;;;5101596;28;19920;-85
2022/03/05 04:30:04;;;;;;;;;;;-1.90;99.90;;;;;;5085002;28;19926;-84
2022/03/05 04:32:29;;;;;;;;;;;-1.90;99.90;;;;;;5085130;28;19930;-85
2022/03/05 04:34:54;;;;;;;;;;;-1.80;99.90;;;;;;5085314;28;19920;-85
2022/03/05 04:37:20;;;;;;;;;;;-1.90;99.90;;;;;;5084776;28;19927;-85
2022/03/05 04:39:47;;;;;;;;;;;-1.90;99.90;;;;;;5085053;28;21283;-85
2022/03/05 04:42:13;;;;;;;;;;;-1.90;99.90;;;;;;5084989;28;19934;-85
2022/03/05 04:44:38;;;;;;;;;;;-1.90;99.90;;;;;;5101753;28;19926;-85
2022/03/05 04:47:04;;;;;;;;;;;-1.70;99.90;;;;;;5080984;28;20307;-84
2022/03/05 04:49:29;;;;;;;;;;;-1.20;99.90;;;;;;5081628;28;19924;-85
2022/03/05 04:51:55;;;;;;;;;;;-1.90;99.90;;;;;;5081738;28;19931;-85
2022/03/05 04:54:20;;;;;;;;;;;-1.80;99.90;;;;;;5081961;28;20015;-85
2022/03/05 04:56:46;;;;;;;;;;;-1.80;99.90;;;;;;5081556;28;19923;-85
2022/03/05 04:59:11;;;;;;;;;;;-1.80;99.90;;;;;;5081636;28;19927;-85
2022/03/05 05:01:37;;;;;;;;;;;-1.80;99.90;;;;;;5098489;28;19920;-85
2022/03/05 05:04:02;;;;;;;;;;;-1.80;99.90;;;;;;5081453;28;19920;-85
2022/03/05 05:06:28;;;;;;;;;;;-1.80;99.90;;;;;;5081131;28;19920;-85
2022/03/05 05:08:54;;;;;;;;;;;-1.60;99.90;;;;;;5081460;28;20299;-84
2022/03/05 05:11:20;;;;;;;;;;;-1.90;99.90;;;;;;5081182;28;19920;-85
2022/03/05 05:13:45;;;;;;;;;;;-1.00;99.90;;;;;;5098351;28;19953;-85
2022/03/05 05:16:11;;;;;;;;;;;-1.90;99.90;;;;;;5081153;28;19920;-86
2022/03/05 05:18:36;;;;;;;;;;;-1.90;99.90;;;;;;5098339;28;19926;-85
2022/03/05 05:21:02;;;;;;;;;;;-1.90;99.90;;;;;;5081090;28;20006;-85
2022/03/05 05:23:28;;;;;;;;;;;-0.80;99.90;;;;;;5081098;28;19926;-84
2022/03/05 05:25:54;;;;;;;;;;;-1.90;99.90;;;;;;5080906;28;19920;-85
2022/03/05 05:28:19;;;;;;;;;;;-1.90;99.90;;;;;;5080575;28;19924;-85
2022/03/05 05:30:45;;;;;;;;;;;-2.00;99.90;;;;;;5080922;28;19920;-85
2022/03/05 05:33:10;;;;;;;;;;;-2.00;99.90;;;;;;5080957;28;19924;-85
2022/03/05 05:35:36;;;;;;;;;;;-2.00;99.90;;;;;;5081154;28;19965;-84
2022/03/05 05:38:01;;;;;;;;;;;-2.00;99.90;;;;;;5080653;28;19968;-85
2022/03/05 05:40:27;;;;;;;;;;;-2.00;99.90;;;;;;5080470;28;19926;-84
2022/03/05 05:42:53;;;;;;;;;;;-2.10;99.90;;;;;;5080492;28;20380;-86
2022/03/05 05:45:18;;;;;;;;;;;-2.10;99.90;;;;;;5080899;28;19927;-84
2022/03/05 05:47:44;;;;;;;;;;;-2.10;99.90;;;;;;5080666;28;19949;-85
2022/03/05 05:50:10;;;;;;;;;;;-2.10;99.90;;;;;;5080436;28;19924;-84
2022/03/05 05:52:35;;;;;;;;;;;-2.10;99.90;;;;;;5080798;28;20298;-85
2022/03/05 05:55:01;;;;;;;;;;;-2.10;99.90;;;;;;5080668;28;19927;-85
2022/03/05 05:57:26;;;;;;;;;;;-2.20;99.90;;;;;;5079461;28;19998;-85
2022/03/05 05:59:52;;;;;;;;;;;-2.20;99.90;;;;;;5080314;28;20010;-85
2022/03/05 06:02:17;;;;;;;;;;;-2.20;99.90;;;;;;5097415;28;20280;-84
2022/03/05 06:04:43;;;;;;;;;;;-2.20;99.90;;;;;;5080241;28;19920;-85
2022/03/05 06:07:08;;;;;;;;;;;-2.20;99.90;;;;;;5079731;28;19920;-85
2022/03/05 06:09:34;;;;;;;;;;;-2.20;99.90;;;;;;5096914;28;19924;-85
2022/03/05 06:12:00;;;;;;;;;;;-2.20;99.90;;;;;;5080073;28;19926;-84
2022/03/05 06:14:25;;;;;;;;;;;-2.20;99.90;;;;;;5080426;28;19927;-84
2022/03/05 06:16:51;;;;;;;;;;;-2.20;99.90;;;;;;5079725;28;19919;-85
2022/03/05 06:19:16;;;;;;;;;;;-2.20;99.90;;;;;;5080245;28;19971;-85
2022/03/05 06:21:42;;;;;;;;;;;-2.20;99.90;;;;;;5079845;28;19924;-85
2022/03/05 06:24:07;;;;;;;;;;;-2.10;99.90;;;;;;5080316;28;20416;-85
2022/03/05 06:26:33;;;;;;;;;;;-2.10;99.90;;;;;;5079427;28;19931;-85
2022/03/05 06:28:59;;;;;;;;;;;-2.20;99.90;;;;;;5080011;28;19930;-84
2022/03/05 06:31:24;;;;;;;;;;;-2.10;99.90;;;;;;5096804;28;19989;-84
2022/03/05 06:33:50;;;;;;;;;;;-2.10;99.90;;;;;;5079753;28;20352;-85
2022/03/05 06:36:16;;;;;;;;;;;-2.10;99.90;;;;;;5079615;28;19966;-85
2022/03/05 06:38:41;;;;;;;;;;;-2.10;99.90;;;;;;5079742;28;19920;-85
2022/03/05 06:41:07;;;;;;;;;;;-2.00;99.90;;;;;;5063236;28;19946;-85
2022/03/05 06:43:32;;;;;;;;;;;-2.00;99.90;;;;;;5080012;28;19927;-85
2022/03/05 06:45:58;;;;;;;;;;;-2.00;99.90;;;;;;5079454;28;19942;-85
2022/03/05 06:48:48;;;;;;;;;;;-2.00;99.90;;;;;;5079129;28;19924;-85
2022/03/05 06:51:14;;;;;;;;;;;-2.00;99.90;;;;;;5096508;28;19920;-85
2022/03/05 06:53:39;;;;;;;;;;;-1.90;99.90;;;;;;5059477;28;19924;-85
2022/03/05 06:56:05;;;;;;;;;;;-1.90;99.90;;;;;;5072396;28;20764;-85
2022/03/05 06:58:31;;;;;;;;;;;-1.90;99.90;;;;;;5079359;28;20011;-85
2022/03/05 07:00:57;;;;;;;;;;;-1.80;99.90;;;;;;5077034;27;19928;-85
2022/03/05 07:03:22;;;;;;;;;;;-1.80;99.90;;;;;;5075666;28;19920;-85
2022/03/05 07:05:48;;;;;;;;;;;-1.70;99.90;;;;;;5078713;28;20261;-85
2022/03/05 07:08:13;;;;;;;;;;;-1.70;99.90;;;;;;5078245;28;19927;-85
2022/03/05 07:10:39;;;;;;;;;;;-1.60;99.90;;;;;;5077843;28;20326;-85
2022/03/05 07:13:04;;;;;;;;;;;-1.60;99.90;;;;;;5078407;28;20277;-85
2022/03/05 07:15:30;;;;;;;;;;;-1.50;99.90;;;;;;5075697;28;20018;-85
2022/03/05 07:17:55;;;;;;;;;;;-1.50;99.90;;;;;;5095939;27;19919;-84
2022/03/05 07:20:21;;;;;;;;;;;-1.40;99.90;;;;;;5078164;28;19926;-86
2022/03/05 07:22:47;;;;;;;;;;;-1.30;99.90;;;;;;5078816;28;19919;-85
2022/03/05 07:25:13;;;;;;;;;;;-1.30;99.90;;;;;;5078533;28;19923;-85
2022/03/05 07:27:38;;;;;;;;;;;-1.20;99.90;;;;;;5077971;28;19965;-85
2022/03/05 07:30:04;;;;;;;;;;;-1.20;99.90;;;;;;5078109;28;20308;-86
2022/03/05 07:32:30;;;;;;;;;;;-1.10;99.90;;;;;;5077811;28;20015;-85
2022/03/05 07:34:55;;;;;;;;;;;-1.00;99.90;;;;;;5096693;28;19955;-85
2022/03/05 07:37:21;;;;;;;;;;;-1.00;99.90;;;;;;5132169;28;19919;-84
2022/03/05 07:40:15;;;;;;;;;;;-0.90;99.90;;;;;;5111991;28;19966;-85
2022/03/05 07:42:41;;;;;;;;;;;-0.90;99.90;;;;;;5102309;28;19923;-85
2022/03/05 07:45:07;;;;;;;;;;;0.30;99.90;;;;;;5077832;28;19927;-85
2022/03/05 07:47:32;;;;;;;;;;;-0.70;99.90;;;;;;5087655;28;19919;-85
2022/03/05 07:50:02;;;;;;;;;;;-0.70;99.90;;;;;;5104109;28;20002;-85
2022/03/05 07:52:28;;;;;;;;;;;-0.60;99.90;;;;;;5072503;28;20323;-85
2022/03/05 07:54:53;;;;;;;;;;;-0.50;99.90;;;;;;5093186;28;19920;-84
2022/03/05 07:57:18;;;;;;;;;;;1.00;99.90;;;;;;5111725;28;19926;-85
2022/03/05 07:59:46;;;;;;;;;;;0.90;99.90;;;;;;5077881;28;19955;-83
2022/03/05 08:02:15;;;;;;;;;;;-0.30;99.90;;;;;;5086473;28;19920;-85
2022/03/05 08:04:41;;;;;;;;;;;-0.10;99.90;;;;;;5078232;28;19931;-85
2022/03/05 08:07:07;;;;;;;;;;;0.00;99.90;;;;;;5077784;28;19943;-85
2022/03/05 08:09:34;;;;;;;;;;;0.00;99.90;;;;;;5078070;28;19953;-85
2022/03/05 08:12:00;;;;;;;;;;;0.10;99.90;;;;;;5094764;28;19970;-85
2022/03/05 08:14:26;;;;;;;;;;;1.60;99.90;;;;;;5078226;28;20016;-86
2022/03/05 08:16:52;;;;;;;;;;;0.80;99.90;;;;;;5077318;28;19998;-86
2022/03/05 08:19:17;;;;;;;;;;;0.40;99.90;;;;;;5078068;28;19943;-86
2022/03/05 08:21:44;;;;;;;;;;;0.50;99.90;;;;;;5083129;28;19920;-85
2022/03/05 08:24:10;;;;;;;;;;;0.60;99.90;;;;;;5079364;28;19955;-85
2022/03/05 08:26:37;;;;;;;;;;;0.70;99.90;;;;;;5123149;27;20377;-85
2022/03/05 08:29:02;;;;;;;;;;;0.70;99.90;;;;;;5074838;28;19924;-86
2022/03/05 08:31:28;;;;;;;;;;;0.80;99.90;;;;;;5075929;28;19919;-85
2022/03/05 08:33:53;;;;;;;;;;;0.90;99.90;;;;;;5091538;27;19924;-85
2022/03/05 08:36:19;;;;;;;;;;;1.00;99.90;;;;;;5118749;27;19927;-84
2022/03/05 08:39:07;;;;;;;;;;;1.00;99.90;;;;;;5120580;27;19927;-84
2022/03/05 08:41:33;;;;;;;;;;;1.10;99.90;;;;;;5110481;27;19924;-85
2022/03/05 08:43:59;;;;;;;;;;;1.20;99.90;;;;;;5130915;27;19926;-85
2022/03/05 08:46:27;;;;;;;;;;;1.20;99.90;;;;;;5103594;27;19920;-86
2022/03/05 08:48:53;;;;;;;;;;;1.30;99.90;;;;;;5089155;28;19965;-86
2022/03/05 08:51:19;;;;;;;;;;;1.40;99.90;;;;;;5078206;28;20445;-85
2022/03/05 08:53:44;;;;;;;;;;;1.40;99.90;;;;;;5089584;27;19925;-85
2022/03/05 08:56:10;;;;;;;;;;;1.50;99.90;;;;;;5105778;27;19981;-86
2022/03/05 08:58:35;;;;;;;;;;;1.60;99.90;;;;;;5064356;28;19923;-85
2022/03/05 09:01:01;;;;;;;;;;;1.60;99.90;;;;;;5092062;27;20367;-86
2022/03/05 09:03:27;;;;;;;;;;;1.70;99.90;;;;;;5118194;27;19920;-86
2022/03/05 09:05:52;;;;;;;;;;;1.70;99.90;;;;;;5082197;27;19919;-86
2022/03/05 09:08:19;;;;;;;;;;;1.90;99.90;;;;;;5113995;27;20020;-85
2022/03/05 09:10:44;;;;;;;;;;;1.80;99.90;;;;;;5089318;28;20392;-86
2022/03/05 09:13:10;;;;;;;;;;;2.00;99.90;;;;;;5080833;28;19928;-85
2022/03/05 09:15:35;;;;;;;;;;;2.00;99.90;;;;;;5082856;28;19955;-85
2022/03/05 09:18:01;;;;;;;;;;;2.00;99.90;;;;;;5094942;28;19919;-86
2022/03/05 09:20:27;;;;;;;;;;;2.10;99.90;;;;;;5079741;28;19970;-86
2022/03/05 09:22:58;;;;;;;;;;;2.10;99.90;;;;;;5079353;27;20285;-83
2022/03/05 09:25:24;;;;;;;;;;;2.20;99.90;;;;;;5092635;28;19924;-83
2022/03/05 09:27:49;;;;;;;;;;;2.20;99.90;;;;;;5091673;28;19920;-83
2022/03/05 09:30:15;;;;;;;;;;;2.30;99.90;;;;;;5079977;28;20432;-83
2022/03/05 09:32:40;;;;;;;;;;;2.40;99.90;;;;;;5096223;28;19926;-83
2022/03/05 09:35:06;;;;;;;;;;;2.50;99.90;;;;;;5097611;28;19926;-83
2022/03/05 09:37:33;;;;;;;;;;;2.60;99.90;;;;;;5079792;28;19920;-83
2022/03/05 09:39:59;;;;;;;;;;;2.60;99.90;;;;;;5080282;28;20005;-83
2022/03/05 09:42:25;;;;;;;;;;;2.90;99.90;;;;;;5080112;28;20400;-82
2022/03/05 09:44:51;;;;;;;;;;;2.70;99.90;;;;;;5080346;28;19924;-83
2022/03/05 09:47:16;;;;;;;;;;;2.80;99.90;;;;;;5079644;28;19931;-83
2022/03/05 09:49:42;;;;;;;;;;;2.90;99.90;;;;;;5097008;28;19924;-82
2022/03/05 09:52:08;;;;;;;;;;;3.00;99.90;;;;;;5079767;28;20393;-83
2022/03/05 09:54:34;;;;;;;;;;;3.90;99.90;;;;;;5079758;28;19931;-83
2022/03/05 09:57:00;;;;;;;;;;;3.20;99.90;;;;;;5079403;28;19920;-83
2022/03/05 09:59:25;;;;;;;;;;;3.30;99.90;;;;;;5096619;28;20327;-83
2022/03/05 10:01:51;;;;;;;;;;;3.50;99.90;;;;;;5079749;28;19930;-83
2022/03/05 10:04:21;;;;;;;;;;;3.30;99.90;;;;;;5079807;28;19927;-83
2022/03/05 10:07:05;;;;;;;;;;;3.30;99.90;;;;;;5079427;28;19920;-83
2022/03/05 10:09:30;;;;;;;;;;;3.30;99.90;;;;;;5079554;28;19924;-84
2022/03/05 10:12:18;;;;;;;;;;;3.30;99.90;;;;;;5074704;28;19972;-83
2022/03/05 10:14:43;;;;;;;;;;;3.30;99.90;;;;;;5097998;28;19927;-83
2022/03/05 10:17:12;;;;;;;;;;;3.30;99.90;;;;;;5076724;28;19919;-83
2022/03/05 10:19:37;;;;;;;;;;;3.40;99.90;;;;;;5089670;28;19920;-83
2022/03/05 10:22:05;;;;;;;;;;;3.90;99.90;;;;;;5080026;27;19927;-83
2022/03/05 10:24:35;;;;;;;;;;;3.50;99.90;;;;;;5101082;28;19927;-83
2022/03/05 10:27:01;;;;;;;;;;;3.50;99.90;;;;;;5081669;27;19924;-83
2022/03/05 10:29:27;;;;;;;;;;;3.60;99.90;;;;;;5078862;28;20332;-83
2022/03/05 10:31:57;;;;;;;;;;;3.80;99.90;;;;;;5094171;28;19927;-83
2022/03/05 10:34:22;;;;;;;;;;;3.80;99.90;;;;;;5079381;28;20439;-83
2022/03/05 10:36:58;;;;;;;;;;;3.90;99.90;;;;;;5079077;28;19947;-83
2022/03/05 10:39:24;;;;;;;;;;;3.90;99.90;;;;;;5078116;28;19920;-83
2022/03/05 10:41:51;;;;;;;;;;;3.90;99.90;;;;;;5087802;27;19920;-83
2022/03/05 10:44:17;;;;;;;;;;;3.90;99.90;;;;;;5099956;27;20019;-83
2022/03/05 10:46:57;;;;;;;;;;;4.00;99.90;;;;;;5064828;28;19920;-83
2022/03/05 10:49:26;;;;;;;;;;;3.90;99.90;;;;;;5085525;28;19972;-83
2022/03/05 10:52:04;;;;;;;;;;;4.00;99.90;;;;;;5085007;28;19934;-83
2022/03/05 10:54:31;;;;;;;;;;;4.10;99.90;;;;;;5091447;28;19930;-83
2022/03/05 10:57:02;;;;;;;;;;;4.10;99.90;;;;;;5075456;28;19945;-83
2022/03/05 10:59:33;;;;;;;;;;;4.20;99.90;;;;;;5094545;28;20302;-83
2022/03/05 11:01:58;;;;;;;;;;;4.30;99.90;;;;;;5084338;27;19920;-83
2022/03/05 11:04:24;;;;;;;;;;;4.30;99.90;;;;;;5101988;27;19920;-83
2022/03/05 11:06:50;;;;;;;;;;;4.30;99.90;;;;;;5072013;28;19920;-83
2022/03/05 11:09:16;;;;;;;;;;;4.30;99.90;;;;;;5059918;28;19931;-84
2022/03/05 11:11:42;;;;;;;;;;;4.30;99.90;;;;;;5071271;28;19923;-83
2022/03/05 11:14:12;;;;;;;;;;;4.30;99.90;;;;;;5119830;27;19920;-84
2022/03/05 11:16:38;;;;;;;;;;;4.40;99.90;;;;;;5072345;28;19920;-83
2022/03/05 11:19:03;;;;;;;;;;;4.40;99.90;;;;;;5104863;27;19926;-83
2022/03/05 11:21:29;;;;;;;;;;;4.90;99.90;;;;;;5098556;27;19919;-82
2022/03/05 11:23:55;;;;;;;;;;;4.50;99.90;;;;;;5132737;27;20015;-83
2022/03/05 11:26:21;;;;;;;;;;;4.50;99.90;;;;;;5094492;28;19928;-83
2022/03/05 11:28:48;;;;;;;;;;;4.60;99.90;;;;;;5094930;28;19972;-82
2022/03/05 11:31:18;;;;;;;;;;;4.70;99.90;;;;;;5095038;28;20348;-83
2022/03/05 11:33:45;;;;;;;;;;;4.60;99.90;;;;;;5078239;28;19919;-82
2022/03/05 11:36:30;;;;;;;;;;;4.60;99.90;;;;;;5094515;28;19923;-83
2022/03/05 11:39:09;;;;;;;;;;;4.70;99.90;;;;;;5111993;28;20652;-82
2022/03/05 11:41:51;;;;;;;;;;;4.80;99.90;;;;;;5077867;28;19923;-82
2022/03/05 11:44:18;;;;;;;;;;;4.80;99.90;;;;;;5078249;28;20079;-83
2022/03/05 11:46:43;;;;;;;;;;;4.90;99.90;;;;;;5077648;28;19927;-83
2022/03/05 11:49:11;;;;;;;;;;;4.90;99.90;;;;;;5091697;28;19935;-84
2022/03/05 11:51:53;;;;;;;;;;;4.90;99.90;;;;;;5110074;28;19980;-83
2022/03/05 11:54:18;;;;;;;;;;;5.00;99.90;;;;;;5074560;28;20011;-82
2022/03/05 11:57:03;;;;;;;;;;;5.00;99.90;;;;;;5077545;28;20006;-83
2022/03/05 11:59:33;;;;;;;;;;;5.00;99.90;;;;;;5101170;28;20010;-83
2022/03/05 12:01:59;;;;;;;;;;;5.10;99.90;;;;;;5072988;28;19920;-83
2022/03/05 12:04:26;;;;;;;;;;;5.10;99.90;;;;;;5083122;28;19931;-83
2022/03/05 12:06:54;;;;;;;;;;;5.20;99.90;;;;;;5099270;27;19919;-83
2022/03/05 12:09:35;;;;;;;;;;;5.30;99.90;;;;;;5088495;28;19931;-82
2022/03/05 12:12:01;;;;;;;;;;;5.30;99.90;;;;;;5127695;27;20377;-83
2022/03/05 12:14:45;;;;;;;;;;;5.30;99.90;;;;;;5073519;28;19920;-83
2022/03/05 12:17:10;;;;;;;;;;;5.20;99.90;;;;;;5108276;27;20415;-83
2022/03/05 12:19:44;;;;;;;;;;;5.20;99.90;;;;;;5089585;28;19920;-83
2022/03/05 12:22:12;;;;;;;;;;;5.20;99.90;;;;;;5068813;28;19941;-83
2022/03/05 12:24:38;;;;;;;;;;;5.20;99.90;;;;;;5079105;28;20402;-83
2022/03/05 12:27:09;;;;;;;;;;;5.20;99.90;;;;;;5087244;27;19920;-85
2022/03/05 12:29:52;;;;;;;;;;;5.30;99.90;;;;;;5113219;27;19967;-83
2022/03/05 12:32:18;;;;;;;;;;;5.30;99.90;;;;;;5110194;28;20006;-83
2022/03/05 12:34:44;;;;;;;;;;;5.30;99.90;;;;;;5098060;27;20012;-83
2022/03/05 12:37:10;;;;;;;;;;;5.30;99.90;;;;;;5105518;27;20663;-83
2022/03/05 12:39:42;;;;;;;;;;;4.50;99.90;;;;;;5093921;28;19928;-83
2022/03/05 12:42:08;;;;;;;;;;;5.40;99.90;;;;;;5109243;27;20373;-83
2022/03/05 12:44:34;;;;;;;;;;;5.40;99.90;;;;;;5092195;27;19929;-83
2022/03/05 12:46:59;;;;;;;;;;;5.40;99.90;;;;;;5082309;28;19920;-83
2022/03/05 12:49:25;;;;;;;;;;;5.60;99.90;;;;;;5080908;28;20348;-83
2022/03/05 12:51:50;;;;;;;;;;;5.40;99.90;;;;;;5081573;28;19923;-83
2022/03/05 12:54:16;;;;;;;;;;;5.40;99.90;;;;;;5131518;27;19981;-83
2022/03/05 12:56:41;;;;;;;;;;;5.50;99.90;;;;;;5080386;28;19928;-83
2022/03/05 12:59:07;;;;;;;;;;;5.50;99.90;;;;;;5080561;28;19927;-83
2022/03/05 13:01:32;;;;;;;;;;;5.60;99.90;;;;;;5080692;28;20373;-82
2022/03/05 13:03:59;;;;;;;;;;;5.50;99.90;;;;;;5080798;28;19919;-83
2022/03/05 13:06:24;;;;;;;;;;;5.50;99.90;;;;;;5080335;28;19924;-83
2022/03/05 13:08:50;;;;;;;;;;;5.60;99.90;;;;;;5079750;28;20019;-83
2022/03/05 13:11:17;;;;;;;;;;;5.60;99.90;;;;;;5080657;28;19946;-83
2022/03/05 13:13:46;;;;;;;;;;;5.60;99.90;;;;;;5080498;28;19920;-82
2022/03/05 13:16:18;;;;;;;;;;;5.60;99.90;;;;;;5080196;28;19965;-83
2022/03/05 13:18:53;;;;;;;;;;;5.80;99.90;;;;;;5080897;28;19969;-83
2022/03/05 13:21:18;;;;;;;;;;;5.70;99.90;;;;;;5097483;28;20293;-83
2022/03/05 13:23:44;;;;;;;;;;;5.80;99.90;;;;;;5080123;28;19927;-83
2022/03/05 13:26:09;;;;;;;;;;;5.80;99.90;;;;;;5079925;28;20026;-83
2022/03/05 13:28:35;;;;;;;;;;;5.80;99.90;;;;;;5097070;28;19923;-83
2022/03/05 13:31:01;;;;;;;;;;;5.80;99.90;;;;;;5080089;28;19987;-83
2022/03/05 13:33:46;;;;;;;;;;;5.80;99.90;;;;;;5080488;28;20687;-83
2022/03/05 13:36:22;;;;;;;;;;;5.80;99.90;;;;;;5080049;28;19924;-83
2022/03/05 13:38:48;;;;;;;;;;;5.90;99.90;;;;;;5080093;28;19919;-83
2022/03/05 13:41:19;;;;;;;;;;;5.90;99.90;;;;;;5080353;28;20376;-83
2022/03/05 13:43:44;;;;;;;;;;;5.90;99.90;;;;;;5079794;28;19979;-83
2022/03/05 13:46:11;;;;;;;;;;;5.90;99.90;;;;;;5096417;28;19926;-83
2022/03/05 13:48:39;;;;;;;;;;;6.00;99.90;;;;;;5079911;28;20437;-83
2022/03/05 13:51:16;;;;;;;;;;;6.00;99.90;;;;;;5096820;28;19920;-83
2022/03/05 13:53:45;;;;;;;;;;;6.20;99.90;;;;;;5079877;28;19972;-83
2022/03/05 13:56:13;;;;;;;;;;;6.10;99.90;;;;;;5079349;28;19928;-83
2022/03/05 13:58:39;;;;;;;;;;;6.10;99.90;;;;;;5080033;28;19924;-83
2022/03/05 14:01:28;;;;;;;;;;;6.20;99.90;;;;;;5080056;28;19965;-83
2022/03/05 14:04:03;;;;;;;;;;;6.20;99.90;;;;;;5079723;28;20281;-83
2022/03/05 14:06:29;;;;;;;;;;;6.20;99.90;;;;;;5096123;28;20300;-83
2022/03/05 14:08:54;;;;;;;;;;;6.20;99.90;;;;;;5079251;28;19931;-83
2022/03/05 14:11:26;;;;;;;;;;;6.30;99.90;;;;;;5096400;28;20338;-83
2022/03/05 14:13:52;;;;;;;;;;;6.30;99.90;;;;;;5079471;28;19986;-83
2022/03/05 14:16:36;;;;;;;;;;;6.30;99.90;;;;;;5096466;28;19963;-83
2022/03/05 14:19:02;;;;;;;;;;;6.40;99.90;;;;;;5079098;28;20330;-84
2022/03/05 14:21:28;;;;;;;;;;;6.40;99.90;;;;;;5096581;28;19931;-83
2022/03/05 14:23:53;;;;;;;;;;;6.40;99.90;;;;;;5079499;28;19920;-83
2022/03/05 14:26:21;;;;;;;;;;;6.40;99.90;;;;;;5078690;28;19924;-83